Terminal Aerodrome Forecast
Issued by NWS

Home | Current Version | Previous Version | Text Only | Print | Product List | Glossary On
Versions: 1 2 3 4 5 6 7 8 9 10 11 12 13 14 15 16 17 18 19
000
FTUS43 KPAH 300520
TAFCGI
TAF
KCGI 300520Z 3006/3106 17006KT P6SM FEW035 SCT100
      TEMPO 3009/3013 6SM BR
     FM301500 18010KT P6SM BKN022 OVC050
      TEMPO 3017/3019 -TSRA OVC021CB
     FM302200 28010KT P6SM SCT020 OVC040=

USA.gov is the U.S. government's official web portal to all federal, state and local government web resources and services.